<?xml version="1.0" encoding="UTF-8" standalone="no" ?>
<gpx xmlns="http://www.topografix.com/GPX/1/1" xmlns:xsi="http://www.w3.org/2001/XMLSchema-instance" xsi:schemaLocation="http://www.topografix.com/GPX/1/1 http://www.topografix.com/GPX/1/1/gpx.xsd" version="1.1" creator="VisuGPX - https://www.visugpx.com">
  <metadata>
    <name>Sentier des Moulins</name>
  </metadata>
  <trk>
    <name><![CDATA[14979520-Sentier des Moulins]]></name>
    <trkseg>
      <trkpt lat="45.61799" lon="4.42197">
        <ele>469</ele>
        <time>2022-06-17T15:39:14Z</time>
      </trkpt>
      <trkpt lat="45.61791" lon="4.42205">
        <ele>469</ele>
        <time>2022-06-17T15:39:27Z</time>
      </trkpt>
      <trkpt lat="45.61771" lon="4.42237">
        <ele>469</ele>
        <time>2022-06-17T15:40:07Z</time>
      </trkpt>
      <trkpt lat="45.61786" lon="4.42256">
        <ele>469</ele>
        <time>2022-06-17T15:40:34Z</time>
      </trkpt>
      <trkpt lat="45.61809" lon="4.4227">
        <ele>470</ele>
        <time>2022-06-17T15:41:07Z</time>
      </trkpt>
      <trkpt lat="45.61838" lon="4.42273">
        <ele>470</ele>
        <time>2022-06-17T15:41:46Z</time>
      </trkpt>
      <trkpt lat="45.61893" lon="4.42286">
        <ele>471</ele>
        <time>2022-06-17T15:43:00Z</time>
      </trkpt>
      <trkpt lat="45.61947" lon="4.42303">
        <ele>473</ele>
        <time>2022-06-17T15:44:14Z</time>
      </trkpt>
      <trkpt lat="45.61991" lon="4.42299">
        <ele>476</ele>
        <time>2022-06-17T15:45:13Z</time>
      </trkpt>
      <trkpt lat="45.62023" lon="4.42288">
        <ele>479</ele>
        <time>2022-06-17T15:45:57Z</time>
      </trkpt>
      <trkpt lat="45.62051" lon="4.42271">
        <ele>482</ele>
        <time>2022-06-17T15:46:38Z</time>
      </trkpt>
      <trkpt lat="45.62082" lon="4.42273">
        <ele>484</ele>
        <time>2022-06-17T15:47:19Z</time>
      </trkpt>
      <trkpt lat="45.62146" lon="4.42299">
        <ele>483</ele>
        <time>2022-06-17T15:48:48Z</time>
      </trkpt>
      <trkpt lat="45.62182" lon="4.42295">
        <ele>484</ele>
        <time>2022-06-17T15:49:36Z</time>
      </trkpt>
      <trkpt lat="45.62234" lon="4.42268">
        <ele>487</ele>
        <time>2022-06-17T15:50:50Z</time>
      </trkpt>
      <trkpt lat="45.62305" lon="4.42264">
        <ele>488</ele>
        <time>2022-06-17T15:52:25Z</time>
      </trkpt>
      <trkpt lat="45.62379" lon="4.42284">
        <ele>489</ele>
        <time>2022-06-17T15:54:05Z</time>
      </trkpt>
      <trkpt lat="45.62384" lon="4.42289">
        <ele>488</ele>
        <time>2022-06-17T15:54:13Z</time>
      </trkpt>
      <trkpt lat="45.62428" lon="4.42347">
        <ele>488</ele>
        <time>2022-06-17T15:55:33Z</time>
      </trkpt>
      <trkpt lat="45.62485" lon="4.4243">
        <ele>488</ele>
        <time>2022-06-17T15:57:22Z</time>
      </trkpt>
      <trkpt lat="45.6251" lon="4.42521">
        <ele>486</ele>
        <time>2022-06-17T15:58:53Z</time>
      </trkpt>
      <trkpt lat="45.62532" lon="4.42748">
        <ele>486</ele>
        <time>2022-06-17T16:02:27Z</time>
      </trkpt>
      <trkpt lat="45.62542" lon="4.42787">
        <ele>489</ele>
        <time>2022-06-17T16:03:05Z</time>
      </trkpt>
      <trkpt lat="45.62582" lon="4.42829">
        <ele>494</ele>
        <time>2022-06-17T16:04:12Z</time>
      </trkpt>
      <trkpt lat="45.6259" lon="4.42942">
        <ele>499</ele>
        <time>2022-06-17T16:05:58Z</time>
      </trkpt>
      <trkpt lat="45.62598" lon="4.43081">
        <ele>504</ele>
        <time>2022-06-17T16:08:08Z</time>
      </trkpt>
      <trkpt lat="45.62594" lon="4.43159">
        <ele>504</ele>
        <time>2022-06-17T16:09:21Z</time>
      </trkpt>
      <trkpt lat="45.62547" lon="4.43365">
        <ele>502</ele>
        <time>2022-06-17T16:12:43Z</time>
      </trkpt>
      <trkpt lat="45.62523" lon="4.43423">
        <ele>502</ele>
        <time>2022-06-17T16:13:46Z</time>
      </trkpt>
      <trkpt lat="45.62502" lon="4.43479">
        <ele>499</ele>
        <time>2022-06-17T16:14:45Z</time>
      </trkpt>
      <trkpt lat="45.6247" lon="4.43555">
        <ele>495</ele>
        <time>2022-06-17T16:16:08Z</time>
      </trkpt>
      <trkpt lat="45.62461" lon="4.43583">
        <ele>495</ele>
        <time>2022-06-17T16:16:37Z</time>
      </trkpt>
      <trkpt lat="45.62456" lon="4.43622">
        <ele>495</ele>
        <time>2022-06-17T16:17:14Z</time>
      </trkpt>
      <trkpt lat="45.62433" lon="4.43694">
        <ele>494</ele>
        <time>2022-06-17T16:18:28Z</time>
      </trkpt>
      <trkpt lat="45.62417" lon="4.43751">
        <ele>494</ele>
        <time>2022-06-17T16:19:25Z</time>
      </trkpt>
      <trkpt lat="45.62402" lon="4.43824">
        <ele>493</ele>
        <time>2022-06-17T16:20:36Z</time>
      </trkpt>
      <trkpt lat="45.62382" lon="4.43955">
        <ele>493</ele>
        <time>2022-06-17T16:22:41Z</time>
      </trkpt>
      <trkpt lat="45.6238" lon="4.44006">
        <ele>493</ele>
        <time>2022-06-17T16:23:29Z</time>
      </trkpt>
      <trkpt lat="45.62391" lon="4.44057">
        <ele>494</ele>
        <time>2022-06-17T16:24:19Z</time>
      </trkpt>
      <trkpt lat="45.624" lon="4.44147">
        <ele>497</ele>
        <time>2022-06-17T16:25:44Z</time>
      </trkpt>
      <trkpt lat="45.62401" lon="4.44164">
        <ele>497</ele>
        <time>2022-06-17T16:25:59Z</time>
      </trkpt>
      <trkpt lat="45.62399" lon="4.44189">
        <ele>498</ele>
        <time>2022-06-17T16:26:23Z</time>
      </trkpt>
      <trkpt lat="45.62395" lon="4.44207">
        <ele>498</ele>
        <time>2022-06-17T16:26:41Z</time>
      </trkpt>
      <trkpt lat="45.6235" lon="4.44315">
        <ele>496</ele>
        <time>2022-06-17T16:28:38Z</time>
      </trkpt>
      <trkpt lat="45.62337" lon="4.44355">
        <ele>495</ele>
        <time>2022-06-17T16:29:19Z</time>
      </trkpt>
      <trkpt lat="45.62327" lon="4.44435">
        <ele>497</ele>
        <time>2022-06-17T16:30:35Z</time>
      </trkpt>
      <trkpt lat="45.62324" lon="4.44441">
        <ele>496</ele>
        <time>2022-06-17T16:30:42Z</time>
      </trkpt>
      <trkpt lat="45.62311" lon="4.44462">
        <ele>495</ele>
        <time>2022-06-17T16:31:08Z</time>
      </trkpt>
      <trkpt lat="45.62308" lon="4.44466">
        <ele>495</ele>
        <time>2022-06-17T16:31:13Z</time>
      </trkpt>
      <trkpt lat="45.62306" lon="4.4447">
        <ele>495</ele>
        <time>2022-06-17T16:31:18Z</time>
      </trkpt>
      <trkpt lat="45.62269" lon="4.44431">
        <ele>494</ele>
        <time>2022-06-17T16:32:19Z</time>
      </trkpt>
      <trkpt lat="45.62259" lon="4.4442">
        <ele>493</ele>
        <time>2022-06-17T16:32:36Z</time>
      </trkpt>
      <trkpt lat="45.62249" lon="4.44403">
        <ele>493</ele>
        <time>2022-06-17T16:32:57Z</time>
      </trkpt>
      <trkpt lat="45.62233" lon="4.44356">
        <ele>493</ele>
        <time>2022-06-17T16:33:46Z</time>
      </trkpt>
      <trkpt lat="45.62218" lon="4.44321">
        <ele>492</ele>
        <time>2022-06-17T16:34:24Z</time>
      </trkpt>
      <trkpt lat="45.62185" lon="4.44278">
        <ele>491</ele>
        <time>2022-06-17T16:35:24Z</time>
      </trkpt>
      <trkpt lat="45.62158" lon="4.44241">
        <ele>490</ele>
        <time>2022-06-17T16:36:13Z</time>
      </trkpt>
      <trkpt lat="45.62145" lon="4.44228">
        <ele>491</ele>
        <time>2022-06-17T16:36:35Z</time>
      </trkpt>
      <trkpt lat="45.6214" lon="4.44209">
        <ele>492</ele>
        <time>2022-06-17T16:36:54Z</time>
      </trkpt>
      <trkpt lat="45.62146" lon="4.44176">
        <ele>492</ele>
        <time>2022-06-17T16:37:25Z</time>
      </trkpt>
      <trkpt lat="45.62147" lon="4.44132">
        <ele>495</ele>
        <time>2022-06-17T16:38:07Z</time>
      </trkpt>
      <trkpt lat="45.62149" lon="4.4408">
        <ele>498</ele>
        <time>2022-06-17T16:38:55Z</time>
      </trkpt>
      <trkpt lat="45.62148" lon="4.4404">
        <ele>499</ele>
        <time>2022-06-17T16:39:32Z</time>
      </trkpt>
      <trkpt lat="45.6214" lon="4.43949">
        <ele>501</ele>
        <time>2022-06-17T16:40:58Z</time>
      </trkpt>
      <trkpt lat="45.62137" lon="4.43904">
        <ele>503</ele>
        <time>2022-06-17T16:41:40Z</time>
      </trkpt>
      <trkpt lat="45.62133" lon="4.43853">
        <ele>506</ele>
        <time>2022-06-17T16:42:28Z</time>
      </trkpt>
      <trkpt lat="45.62121" lon="4.43804">
        <ele>509</ele>
        <time>2022-06-17T16:43:17Z</time>
      </trkpt>
      <trkpt lat="45.62068" lon="4.4366">
        <ele>518</ele>
        <time>2022-06-17T16:45:48Z</time>
      </trkpt>
      <trkpt lat="45.62053" lon="4.43626">
        <ele>523</ele>
        <time>2022-06-17T16:46:26Z</time>
      </trkpt>
      <trkpt lat="45.6204" lon="4.43589">
        <ele>527</ele>
        <time>2022-06-17T16:47:05Z</time>
      </trkpt>
      <trkpt lat="45.62018" lon="4.43519">
        <ele>532</ele>
        <time>2022-06-17T16:48:16Z</time>
      </trkpt>
      <trkpt lat="45.62003" lon="4.4345">
        <ele>536</ele>
        <time>2022-06-17T16:49:24Z</time>
      </trkpt>
      <trkpt lat="45.6199" lon="4.43409">
        <ele>537</ele>
        <time>2022-06-17T16:50:06Z</time>
      </trkpt>
      <trkpt lat="45.61977" lon="4.43374">
        <ele>539</ele>
        <time>2022-06-17T16:50:43Z</time>
      </trkpt>
      <trkpt lat="45.61954" lon="4.43337">
        <ele>541</ele>
        <time>2022-06-17T16:51:29Z</time>
      </trkpt>
      <trkpt lat="45.61951" lon="4.43317">
        <ele>540</ele>
        <time>2022-06-17T16:51:48Z</time>
      </trkpt>
      <trkpt lat="45.61953" lon="4.43292">
        <ele>539</ele>
        <time>2022-06-17T16:52:12Z</time>
      </trkpt>
      <trkpt lat="45.61953" lon="4.43258">
        <ele>537</ele>
        <time>2022-06-17T16:52:43Z</time>
      </trkpt>
      <trkpt lat="45.61952" lon="4.43235">
        <ele>536</ele>
        <time>2022-06-17T16:53:05Z</time>
      </trkpt>
      <trkpt lat="45.61903" lon="4.43174">
        <ele>536</ele>
        <time>2022-06-17T16:54:31Z</time>
      </trkpt>
      <trkpt lat="45.6185" lon="4.43148">
        <ele>536</ele>
        <time>2022-06-17T16:55:46Z</time>
      </trkpt>
      <trkpt lat="45.61797" lon="4.43136">
        <ele>532</ele>
        <time>2022-06-17T16:56:58Z</time>
      </trkpt>
      <trkpt lat="45.61732" lon="4.43143">
        <ele>530</ele>
        <time>2022-06-17T16:58:25Z</time>
      </trkpt>
      <trkpt lat="45.61732" lon="4.43146">
        <ele>531</ele>
        <time>2022-06-17T16:58:28Z</time>
      </trkpt>
      <trkpt lat="45.61704" lon="4.4314">
        <ele>531</ele>
        <time>2022-06-17T16:59:05Z</time>
      </trkpt>
      <trkpt lat="45.61696" lon="4.43133">
        <ele>530</ele>
        <time>2022-06-17T16:59:18Z</time>
      </trkpt>
      <trkpt lat="45.61683" lon="4.43115">
        <ele>528</ele>
        <time>2022-06-17T16:59:42Z</time>
      </trkpt>
      <trkpt lat="45.61633" lon="4.43029">
        <ele>531</ele>
        <time>2022-06-17T17:01:26Z</time>
      </trkpt>
      <trkpt lat="45.6161" lon="4.42985">
        <ele>532</ele>
        <time>2022-06-17T17:02:18Z</time>
      </trkpt>
      <trkpt lat="45.61593" lon="4.42967">
        <ele>532</ele>
        <time>2022-06-17T17:02:46Z</time>
      </trkpt>
      <trkpt lat="45.61578" lon="4.42954">
        <ele>532</ele>
        <time>2022-06-17T17:03:09Z</time>
      </trkpt>
      <trkpt lat="45.61575" lon="4.42952">
        <ele>531</ele>
        <time>2022-06-17T17:03:14Z</time>
      </trkpt>
      <trkpt lat="45.61571" lon="4.42953">
        <ele>531</ele>
        <time>2022-06-17T17:03:19Z</time>
      </trkpt>
      <trkpt lat="45.61565" lon="4.42956">
        <ele>531</ele>
        <time>2022-06-17T17:03:28Z</time>
      </trkpt>
      <trkpt lat="45.61547" lon="4.42975">
        <ele>533</ele>
        <time>2022-06-17T17:03:58Z</time>
      </trkpt>
      <trkpt lat="45.6149" lon="4.43023">
        <ele>539</ele>
        <time>2022-06-17T17:05:26Z</time>
      </trkpt>
      <trkpt lat="45.61462" lon="4.43034">
        <ele>540</ele>
        <time>2022-06-17T17:06:05Z</time>
      </trkpt>
      <trkpt lat="45.61449" lon="4.43035">
        <ele>540</ele>
        <time>2022-06-17T17:06:22Z</time>
      </trkpt>
      <trkpt lat="45.61442" lon="4.43027">
        <ele>539</ele>
        <time>2022-06-17T17:06:34Z</time>
      </trkpt>
      <trkpt lat="45.61431" lon="4.43002">
        <ele>535</ele>
        <time>2022-06-17T17:07:01Z</time>
      </trkpt>
      <trkpt lat="45.61427" lon="4.42995">
        <ele>534</ele>
        <time>2022-06-17T17:07:10Z</time>
      </trkpt>
      <trkpt lat="45.61419" lon="4.42993">
        <ele>534</ele>
        <time>2022-06-17T17:07:21Z</time>
      </trkpt>
      <trkpt lat="45.614" lon="4.42994">
        <ele>534</ele>
        <time>2022-06-17T17:07:46Z</time>
      </trkpt>
      <trkpt lat="45.61346" lon="4.43003">
        <ele>534</ele>
        <time>2022-06-17T17:08:59Z</time>
      </trkpt>
      <trkpt lat="45.61285" lon="4.43027">
        <ele>537</ele>
        <time>2022-06-17T17:10:23Z</time>
      </trkpt>
      <trkpt lat="45.61276" lon="4.43033">
        <ele>538</ele>
        <time>2022-06-17T17:10:36Z</time>
      </trkpt>
      <trkpt lat="45.61242" lon="4.43027">
        <ele>534</ele>
        <time>2022-06-17T17:11:22Z</time>
      </trkpt>
      <trkpt lat="45.61207" lon="4.43007">
        <ele>527</ele>
        <time>2022-06-17T17:12:12Z</time>
      </trkpt>
      <trkpt lat="45.6118" lon="4.42998">
        <ele>525</ele>
        <time>2022-06-17T17:12:49Z</time>
      </trkpt>
      <trkpt lat="45.61167" lon="4.4298">
        <ele>524</ele>
        <time>2022-06-17T17:13:14Z</time>
      </trkpt>
      <trkpt lat="45.61154" lon="4.42929">
        <ele>523</ele>
        <time>2022-06-17T17:14:04Z</time>
      </trkpt>
      <trkpt lat="45.61141" lon="4.42907">
        <ele>523</ele>
        <time>2022-06-17T17:14:31Z</time>
      </trkpt>
      <trkpt lat="45.61124" lon="4.42902">
        <ele>524</ele>
        <time>2022-06-17T17:14:54Z</time>
      </trkpt>
      <trkpt lat="45.61105" lon="4.42911">
        <ele>526</ele>
        <time>2022-06-17T17:15:21Z</time>
      </trkpt>
      <trkpt lat="45.61049" lon="4.4288">
        <ele>528</ele>
        <time>2022-06-17T17:16:41Z</time>
      </trkpt>
      <trkpt lat="45.61047" lon="4.42879">
        <ele>528</ele>
        <time>2022-06-17T17:16:44Z</time>
      </trkpt>
      <trkpt lat="45.60996" lon="4.42886">
        <ele>533</ele>
        <time>2022-06-17T17:17:52Z</time>
      </trkpt>
      <trkpt lat="45.60929" lon="4.42902">
        <ele>538</ele>
        <time>2022-06-17T17:19:23Z</time>
      </trkpt>
      <trkpt lat="45.60869" lon="4.42914">
        <ele>541</ele>
        <time>2022-06-17T17:20:44Z</time>
      </trkpt>
      <trkpt lat="45.60835" lon="4.42928">
        <ele>544</ele>
        <time>2022-06-17T17:21:31Z</time>
      </trkpt>
      <trkpt lat="45.60806" lon="4.42946">
        <ele>547</ele>
        <time>2022-06-17T17:22:13Z</time>
      </trkpt>
      <trkpt lat="45.60773" lon="4.42976">
        <ele>550</ele>
        <time>2022-06-17T17:23:05Z</time>
      </trkpt>
      <trkpt lat="45.60766" lon="4.42978">
        <ele>550</ele>
        <time>2022-06-17T17:23:15Z</time>
      </trkpt>
      <trkpt lat="45.60757" lon="4.42967">
        <ele>550</ele>
        <time>2022-06-17T17:23:31Z</time>
      </trkpt>
      <trkpt lat="45.6076" lon="4.42942">
        <ele>548</ele>
        <time>2022-06-17T17:23:54Z</time>
      </trkpt>
      <trkpt lat="45.60754" lon="4.42925">
        <ele>547</ele>
        <time>2022-06-17T17:24:12Z</time>
      </trkpt>
      <trkpt lat="45.60581" lon="4.4277">
        <ele>574</ele>
        <time>2022-06-17T17:28:45Z</time>
      </trkpt>
      <trkpt lat="45.60573" lon="4.42756">
        <ele>575</ele>
        <time>2022-06-17T17:29:01Z</time>
      </trkpt>
      <trkpt lat="45.60577" lon="4.42756">
        <ele>575</ele>
        <time>2022-06-17T17:29:07Z</time>
      </trkpt>
      <trkpt lat="45.60631" lon="4.42755">
        <ele>570</ele>
        <time>2022-06-17T17:30:19Z</time>
      </trkpt>
      <trkpt lat="45.60642" lon="4.42711">
        <ele>573</ele>
        <time>2022-06-17T17:31:03Z</time>
      </trkpt>
      <trkpt lat="45.60664" lon="4.42656">
        <ele>578</ele>
        <time>2022-06-17T17:32:02Z</time>
      </trkpt>
      <trkpt lat="45.60686" lon="4.42605">
        <ele>581</ele>
        <time>2022-06-17T17:32:58Z</time>
      </trkpt>
      <trkpt lat="45.60711" lon="4.42562">
        <ele>584</ele>
        <time>2022-06-17T17:33:50Z</time>
      </trkpt>
      <trkpt lat="45.60716" lon="4.4255">
        <ele>584</ele>
        <time>2022-06-17T17:34:03Z</time>
      </trkpt>
      <trkpt lat="45.60759" lon="4.42492">
        <ele>586</ele>
        <time>2022-06-17T17:35:22Z</time>
      </trkpt>
      <trkpt lat="45.60804" lon="4.42419">
        <ele>586</ele>
        <time>2022-06-17T17:36:53Z</time>
      </trkpt>
      <trkpt lat="45.60816" lon="4.42403">
        <ele>586</ele>
        <time>2022-06-17T17:37:14Z</time>
      </trkpt>
      <trkpt lat="45.6084" lon="4.42381">
        <ele>586</ele>
        <time>2022-06-17T17:37:52Z</time>
      </trkpt>
      <trkpt lat="45.60853" lon="4.4236">
        <ele>585</ele>
        <time>2022-06-17T17:38:19Z</time>
      </trkpt>
      <trkpt lat="45.60875" lon="4.42316">
        <ele>584</ele>
        <time>2022-06-17T17:39:09Z</time>
      </trkpt>
      <trkpt lat="45.60882" lon="4.42298">
        <ele>583</ele>
        <time>2022-06-17T17:39:28Z</time>
      </trkpt>
      <trkpt lat="45.60886" lon="4.42241">
        <ele>580</ele>
        <time>2022-06-17T17:40:22Z</time>
      </trkpt>
      <trkpt lat="45.60889" lon="4.42231">
        <ele>579</ele>
        <time>2022-06-17T17:40:32Z</time>
      </trkpt>
      <trkpt lat="45.60893" lon="4.42219">
        <ele>578</ele>
        <time>2022-06-17T17:40:44Z</time>
      </trkpt>
      <trkpt lat="45.60957" lon="4.42149">
        <ele>567</ele>
        <time>2022-06-17T17:42:32Z</time>
      </trkpt>
      <trkpt lat="45.61026" lon="4.42198">
        <ele>560</ele>
        <time>2022-06-17T17:44:15Z</time>
      </trkpt>
      <trkpt lat="45.61082" lon="4.42203">
        <ele>543</ele>
        <time>2022-06-17T17:45:30Z</time>
      </trkpt>
      <trkpt lat="45.61136" lon="4.42153">
        <ele>532</ele>
        <time>2022-06-17T17:46:56Z</time>
      </trkpt>
      <trkpt lat="45.61186" lon="4.42045">
        <ele>522</ele>
        <time>2022-06-17T17:48:56Z</time>
      </trkpt>
      <trkpt lat="45.61188" lon="4.42035">
        <ele>521</ele>
        <time>2022-06-17T17:49:06Z</time>
      </trkpt>
      <trkpt lat="45.61171" lon="4.42023">
        <ele>522</ele>
        <time>2022-06-17T17:49:31Z</time>
      </trkpt>
      <trkpt lat="45.61123" lon="4.42006">
        <ele>522</ele>
        <time>2022-06-17T17:50:37Z</time>
      </trkpt>
      <trkpt lat="45.61094" lon="4.41993">
        <ele>520</ele>
        <time>2022-06-17T17:51:18Z</time>
      </trkpt>
      <trkpt lat="45.61073" lon="4.4198">
        <ele>521</ele>
        <time>2022-06-17T17:51:49Z</time>
      </trkpt>
      <trkpt lat="45.61036" lon="4.41965">
        <ele>529</ele>
        <time>2022-06-17T17:52:40Z</time>
      </trkpt>
      <trkpt lat="45.61026" lon="4.41953">
        <ele>530</ele>
        <time>2022-06-17T17:52:57Z</time>
      </trkpt>
      <trkpt lat="45.61007" lon="4.41921">
        <ele>532</ele>
        <time>2022-06-17T17:53:36Z</time>
      </trkpt>
      <trkpt lat="45.60998" lon="4.41894">
        <ele>530</ele>
        <time>2022-06-17T17:54:04Z</time>
      </trkpt>
      <trkpt lat="45.60993" lon="4.4187">
        <ele>526</ele>
        <time>2022-06-17T17:54:28Z</time>
      </trkpt>
      <trkpt lat="45.60987" lon="4.4185">
        <ele>524</ele>
        <time>2022-06-17T17:54:48Z</time>
      </trkpt>
      <trkpt lat="45.60978" lon="4.41835">
        <ele>522</ele>
        <time>2022-06-17T17:55:06Z</time>
      </trkpt>
      <trkpt lat="45.60965" lon="4.41818">
        <ele>520</ele>
        <time>2022-06-17T17:55:30Z</time>
      </trkpt>
      <trkpt lat="45.60951" lon="4.4181">
        <ele>520</ele>
        <time>2022-06-17T17:55:50Z</time>
      </trkpt>
      <trkpt lat="45.60927" lon="4.41803">
        <ele>521</ele>
        <time>2022-06-17T17:56:23Z</time>
      </trkpt>
      <trkpt lat="45.60911" lon="4.41796">
        <ele>520</ele>
        <time>2022-06-17T17:56:45Z</time>
      </trkpt>
      <trkpt lat="45.60893" lon="4.41797">
        <ele>520</ele>
        <time>2022-06-17T17:57:09Z</time>
      </trkpt>
      <trkpt lat="45.60876" lon="4.41795">
        <ele>519</ele>
        <time>2022-06-17T17:57:32Z</time>
      </trkpt>
      <trkpt lat="45.60809" lon="4.41752">
        <ele>511</ele>
        <time>2022-06-17T17:59:10Z</time>
      </trkpt>
      <trkpt lat="45.60771" lon="4.41729">
        <ele>507</ele>
        <time>2022-06-17T18:00:05Z</time>
      </trkpt>
      <trkpt lat="45.60769" lon="4.41724">
        <ele>506</ele>
        <time>2022-06-17T18:00:10Z</time>
      </trkpt>
      <trkpt lat="45.6077" lon="4.41716">
        <ele>504</ele>
        <time>2022-06-17T18:00:18Z</time>
      </trkpt>
      <trkpt lat="45.60781" lon="4.41709">
        <ele>503</ele>
        <time>2022-06-17T18:00:34Z</time>
      </trkpt>
      <trkpt lat="45.60803" lon="4.41701">
        <ele>501</ele>
        <time>2022-06-17T18:01:04Z</time>
      </trkpt>
      <trkpt lat="45.60833" lon="4.41687">
        <ele>498</ele>
        <time>2022-06-17T18:01:46Z</time>
      </trkpt>
      <trkpt lat="45.60848" lon="4.41678">
        <ele>496</ele>
        <time>2022-06-17T18:02:08Z</time>
      </trkpt>
      <trkpt lat="45.60856" lon="4.41666">
        <ele>494</ele>
        <time>2022-06-17T18:02:24Z</time>
      </trkpt>
      <trkpt lat="45.60876" lon="4.41615">
        <ele>490</ele>
        <time>2022-06-17T18:03:18Z</time>
      </trkpt>
      <trkpt lat="45.60879" lon="4.41607">
        <ele>490</ele>
        <time>2022-06-17T18:03:27Z</time>
      </trkpt>
      <trkpt lat="45.60873" lon="4.41602">
        <ele>489</ele>
        <time>2022-06-17T18:03:36Z</time>
      </trkpt>
      <trkpt lat="45.60866" lon="4.41587">
        <ele>488</ele>
        <time>2022-06-17T18:03:53Z</time>
      </trkpt>
      <trkpt lat="45.60862" lon="4.4157">
        <ele>489</ele>
        <time>2022-06-17T18:04:10Z</time>
      </trkpt>
      <trkpt lat="45.6086" lon="4.41558">
        <ele>490</ele>
        <time>2022-06-17T18:04:21Z</time>
      </trkpt>
      <trkpt lat="45.60858" lon="4.41544">
        <ele>491</ele>
        <time>2022-06-17T18:04:34Z</time>
      </trkpt>
      <trkpt lat="45.60859" lon="4.41514">
        <ele>494</ele>
        <time>2022-06-17T18:05:02Z</time>
      </trkpt>
      <trkpt lat="45.60865" lon="4.41496">
        <ele>495</ele>
        <time>2022-06-17T18:05:21Z</time>
      </trkpt>
      <trkpt lat="45.60878" lon="4.41486">
        <ele>496</ele>
        <time>2022-06-17T18:05:41Z</time>
      </trkpt>
      <trkpt lat="45.609" lon="4.41484">
        <ele>495</ele>
        <time>2022-06-17T18:06:10Z</time>
      </trkpt>
      <trkpt lat="45.6094" lon="4.41492">
        <ele>492</ele>
        <time>2022-06-17T18:07:04Z</time>
      </trkpt>
      <trkpt lat="45.60964" lon="4.41488">
        <ele>491</ele>
        <time>2022-06-17T18:07:36Z</time>
      </trkpt>
      <trkpt lat="45.60984" lon="4.41477">
        <ele>491</ele>
        <time>2022-06-17T18:08:05Z</time>
      </trkpt>
      <trkpt lat="45.60996" lon="4.41467">
        <ele>491</ele>
        <time>2022-06-17T18:08:23Z</time>
      </trkpt>
      <trkpt lat="45.61007" lon="4.41455">
        <ele>492</ele>
        <time>2022-06-17T18:08:42Z</time>
      </trkpt>
      <trkpt lat="45.61016" lon="4.4144">
        <ele>493</ele>
        <time>2022-06-17T18:09:00Z</time>
      </trkpt>
      <trkpt lat="45.61024" lon="4.41423">
        <ele>494</ele>
        <time>2022-06-17T18:09:19Z</time>
      </trkpt>
      <trkpt lat="45.61048" lon="4.41348">
        <ele>499</ele>
        <time>2022-06-17T18:10:36Z</time>
      </trkpt>
      <trkpt lat="45.61055" lon="4.41332">
        <ele>500</ele>
        <time>2022-06-17T18:10:54Z</time>
      </trkpt>
      <trkpt lat="45.6107" lon="4.41315">
        <ele>502</ele>
        <time>2022-06-17T18:11:20Z</time>
      </trkpt>
      <trkpt lat="45.61084" lon="4.41311">
        <ele>502</ele>
        <time>2022-06-17T18:11:39Z</time>
      </trkpt>
      <trkpt lat="45.61107" lon="4.4131">
        <ele>501</ele>
        <time>2022-06-17T18:12:09Z</time>
      </trkpt>
      <trkpt lat="45.61127" lon="4.41306">
        <ele>500</ele>
        <time>2022-06-17T18:12:36Z</time>
      </trkpt>
      <trkpt lat="45.61144" lon="4.41298">
        <ele>500</ele>
        <time>2022-06-17T18:13:00Z</time>
      </trkpt>
      <trkpt lat="45.61158" lon="4.4129">
        <ele>500</ele>
        <time>2022-06-17T18:13:20Z</time>
      </trkpt>
      <trkpt lat="45.6117" lon="4.41279">
        <ele>501</ele>
        <time>2022-06-17T18:13:39Z</time>
      </trkpt>
      <trkpt lat="45.61182" lon="4.41262">
        <ele>502</ele>
        <time>2022-06-17T18:14:02Z</time>
      </trkpt>
      <trkpt lat="45.61179" lon="4.41259">
        <ele>503</ele>
        <time>2022-06-17T18:14:07Z</time>
      </trkpt>
      <trkpt lat="45.61213" lon="4.41281">
        <ele>497</ele>
        <time>2022-06-17T18:14:57Z</time>
      </trkpt>
      <trkpt lat="45.61296" lon="4.41325">
        <ele>484</ele>
        <time>2022-06-17T18:16:55Z</time>
      </trkpt>
      <trkpt lat="45.61315" lon="4.41327">
        <ele>481</ele>
        <time>2022-06-17T18:17:20Z</time>
      </trkpt>
      <trkpt lat="45.6133" lon="4.41326">
        <ele>480</ele>
        <time>2022-06-17T18:17:40Z</time>
      </trkpt>
      <trkpt lat="45.61348" lon="4.4132">
        <ele>478</ele>
        <time>2022-06-17T18:18:05Z</time>
      </trkpt>
      <trkpt lat="45.61372" lon="4.41318">
        <ele>475</ele>
        <time>2022-06-17T18:18:37Z</time>
      </trkpt>
      <trkpt lat="45.61399" lon="4.41321">
        <ele>472</ele>
        <time>2022-06-17T18:19:13Z</time>
      </trkpt>
      <trkpt lat="45.61415" lon="4.41326">
        <ele>470</ele>
        <time>2022-06-17T18:19:35Z</time>
      </trkpt>
      <trkpt lat="45.61428" lon="4.41336">
        <ele>470</ele>
        <time>2022-06-17T18:19:55Z</time>
      </trkpt>
      <trkpt lat="45.61441" lon="4.41342">
        <ele>469</ele>
        <time>2022-06-17T18:20:13Z</time>
      </trkpt>
      <trkpt lat="45.61457" lon="4.41344">
        <ele>468</ele>
        <time>2022-06-17T18:20:34Z</time>
      </trkpt>
      <trkpt lat="45.61474" lon="4.41344">
        <ele>467</ele>
        <time>2022-06-17T18:20:57Z</time>
      </trkpt>
      <trkpt lat="45.61481" lon="4.41344">
        <ele>467</ele>
        <time>2022-06-17T18:21:06Z</time>
      </trkpt>
      <trkpt lat="45.61486" lon="4.41348">
        <ele>467</ele>
        <time>2022-06-17T18:21:14Z</time>
      </trkpt>
      <trkpt lat="45.61499" lon="4.41393">
        <ele>467</ele>
        <time>2022-06-17T18:21:59Z</time>
      </trkpt>
      <trkpt lat="45.61507" lon="4.41406">
        <ele>467</ele>
        <time>2022-06-17T18:22:16Z</time>
      </trkpt>
      <trkpt lat="45.6154" lon="4.41423">
        <ele>466</ele>
        <time>2022-06-17T18:23:02Z</time>
      </trkpt>
      <trkpt lat="45.61548" lon="4.41434">
        <ele>466</ele>
        <time>2022-06-17T18:23:17Z</time>
      </trkpt>
      <trkpt lat="45.6156" lon="4.41454">
        <ele>466</ele>
        <time>2022-06-17T18:23:42Z</time>
      </trkpt>
      <trkpt lat="45.61583" lon="4.41483">
        <ele>467</ele>
        <time>2022-06-17T18:24:23Z</time>
      </trkpt>
      <trkpt lat="45.6159" lon="4.41497">
        <ele>467</ele>
        <time>2022-06-17T18:24:39Z</time>
      </trkpt>
      <trkpt lat="45.61599" lon="4.41621">
        <ele>465</ele>
        <time>2022-06-17T18:26:35Z</time>
      </trkpt>
      <trkpt lat="45.61616" lon="4.41699">
        <ele>465</ele>
        <time>2022-06-17T18:27:51Z</time>
      </trkpt>
      <trkpt lat="45.61637" lon="4.41828">
        <ele>468</ele>
        <time>2022-06-17T18:29:55Z</time>
      </trkpt>
      <trkpt lat="45.61655" lon="4.41884">
        <ele>469</ele>
        <time>2022-06-17T18:30:53Z</time>
      </trkpt>
      <trkpt lat="45.61665" lon="4.4191">
        <ele>469</ele>
        <time>2022-06-17T18:31:20Z</time>
      </trkpt>
      <trkpt lat="45.61744" lon="4.4198">
        <ele>469</ele>
        <time>2022-06-17T18:33:24Z</time>
      </trkpt>
      <trkpt lat="45.61741" lon="4.42001">
        <ele>469</ele>
        <time>2022-06-17T18:33:44Z</time>
      </trkpt>
      <trkpt lat="45.61745" lon="4.4202">
        <ele>469</ele>
        <time>2022-06-17T18:34:03Z</time>
      </trkpt>
      <trkpt lat="45.61804" lon="4.42192">
        <ele>469</ele>
        <time>2022-06-17T18:37:02Z</time>
      </trkpt>
      <trkpt lat="45.61799" lon="4.42197">
        <ele>469</ele>
        <time>2022-06-17T18:37:10Z</time>
      </trkpt>
    </trkseg>
  </trk>
</gpx>